sensor_id;sensor_type;location;lat;lon;timestamp;temperature;humidity
80238;DHT22;69544;42.138;24.742;2023-05-08T00:00:27;23.00;34.20
80238;DHT22;69544;42.138;24.742;2023-05-08T00:02:53;23.10;34.30
80238;DHT22;69544;42.138;24.742;2023-05-08T00:05:19;23.10;34.30
80238;DHT22;69544;42.138;24.742;2023-05-08T00:07:45;23.10;34.30
80238;DHT22;69544;42.138;24.742;2023-05-08T00:10:11;23.00;34.20
80238;DHT22;69544;42.138;24.742;2023-05-08T00:12:37;23.00;34.20
80238;DHT22;69544;42.138;24.742;2023-05-08T00:15:03;23.00;34.10
80238;DHT22;69544;42.138;24.742;2023-05-08T00:17:31;23.00;34.10
80238;DHT22;69544;42.138;24.742;2023-05-08T00:19:57;23.00;34.20
80238;DHT22;69544;42.138;24.742;2023-05-08T00:22:23;23.00;34.10
80238;DHT22;69544;42.138;24.742;2023-05-08T00:24:49;23.00;34.20
80238;DHT22;69544;42.138;24.742;2023-05-08T00:27:14;23.10;34.10
80238;DHT22;69544;42.138;24.742;2023-05-08T00:29:40;23.00;34.10
80238;DHT22;69544;42.138;24.742;2023-05-08T00:32:06;23.10;34.10
80238;DHT22;69544;42.138;24.742;2023-05-08T00:34:32;23.00;34.10
80238;DHT22;69544;42.138;24.742;2023-05-08T00:36:58;23.00;34.10
80238;DHT22;69544;42.138;24.742;2023-05-08T00:39:24;23.10;34.10
80238;DHT22;69544;42.138;24.742;2023-05-08T00:41:50;23.00;34.10
80238;DHT22;69544;42.138;24.742;2023-05-08T00:44:15;23.00;34.10
80238;DHT22;69544;42.138;24.742;2023-05-08T00:46:42;23.00;34.10
80238;DHT22;69544;42.138;24.742;2023-05-08T00:49:09;23.00;34.10
80238;DHT22;69544;42.138;24.742;2023-05-08T00:51:38;23.00;34.10
80238;DHT22;69544;42.138;24.742;2023-05-08T00:54:05;23.00;34.10
80238;DHT22;69544;42.138;24.742;2023-05-08T00:56:31;23.00;34.10
80238;DHT22;69544;42.138;24.742;2023-05-08T00:58:58;23.00;34.10
80238;DHT22;69544;42.138;24.742;2023-05-08T01:01:25;23.00;34.00
80238;DHT22;69544;42.138;24.742;2023-05-08T01:03:51;23.00;34.10
80238;DHT22;69544;42.138;24.742;2023-05-08T01:06:17;23.00;34.00
80238;DHT22;69544;42.138;24.742;2023-05-08T01:08:44;23.00;34.00
80238;DHT22;69544;42.138;24.742;2023-05-08T01:16:46;22.90;35.10
80238;DHT22;69544;42.138;24.742;2023-05-08T01:36:53;22.90;34.00
80238;DHT22;69544;42.138;24.742;2023-05-08T01:39:50;22.90;34.10
80238;DHT22;69544;42.138;24.742;2023-05-08T01:42:22;22.90;34.00
80238;DHT22;69544;42.138;24.742;2023-05-08T01:44:55;22.90;34.00
80238;DHT22;69544;42.138;24.742;2023-05-08T01:47:24;22.90;34.00
80238;DHT22;69544;42.138;24.742;2023-05-08T01:50:06;22.90;34.00
80238;DHT22;69544;42.138;24.742;2023-05-08T01:52:42;22.90;34.00
80238;DHT22;69544;42.138;24.742;2023-05-08T01:55:13;22.90;34.00
80238;DHT22;69544;42.138;24.742;2023-05-08T01:57:46;22.90;34.00
80238;DHT22;69544;42.138;24.742;2023-05-08T02:00:14;22.90;34.00
80238;DHT22;69544;42.138;24.742;2023-05-08T02:02:42;22.80;33.90
80238;DHT22;69544;42.138;24.742;2023-05-08T02:05:09;22.80;33.90
80238;DHT22;69544;42.138;24.742;2023-05-08T02:07:37;22.80;34.00
80238;DHT22;69544;42.138;24.742;2023-05-08T02:10:05;22.80;33.90
80238;DHT22;69544;42.138;24.742;2023-05-08T02:12:31;22.80;33.90
80238;DHT22;69544;42.138;24.742;2023-05-08T02:14:59;22.80;33.90
80238;DHT22;69544;42.138;24.742;2023-05-08T02:17:26;22.90;33.90
80238;DHT22;69544;42.138;24.742;2023-05-08T02:19:54;22.80;33.80
80238;DHT22;69544;42.138;24.742;2023-05-08T02:22:22;22.80;33.80
80238;DHT22;69544;42.138;24.742;2023-05-08T02:24:49;22.80;33.80
80238;DHT22;69544;42.138;24.742;2023-05-08T02:27:21;22.80;33.80
80238;DHT22;69544;42.138;24.742;2023-05-08T02:29:52;22.80;33.80
80238;DHT22;69544;42.138;24.742;2023-05-08T02:32:19;22.80;33.90
80238;DHT22;69544;42.138;24.742;2023-05-08T02:34:48;22.80;33.80
80238;DHT22;69544;42.138;24.742;2023-05-08T02:37:17;22.80;33.80
80238;DHT22;69544;42.138;24.742;2023-05-08T02:39:44;22.80;33.70
80238;DHT22;69544;42.138;24.742;2023-05-08T02:42:12;22.80;33.70
80238;DHT22;69544;42.138;24.742;2023-05-08T02:44:37;22.80;33.70
80238;DHT22;69544;42.138;24.742;2023-05-08T02:47:21;22.80;33.70
80238;DHT22;69544;42.138;24.742;2023-05-08T02:50:02;22.80;33.70
80238;DHT22;69544;42.138;24.742;2023-05-08T02:52:36;22.80;33.70
80238;DHT22;69544;42.138;24.742;2023-05-08T03:00:46;22.80;33.70
80238;DHT22;69544;42.138;24.742;2023-05-08T03:03:22;22.80;33.70
80238;DHT22;69544;42.138;24.742;2023-05-08T03:05:54;22.80;33.70
80238;DHT22;69544;42.138;24.742;2023-05-08T03:08:30;22.80;33.70
80238;DHT22;69544;42.138;24.742;2023-05-08T03:11:01;22.70;33.60
80238;DHT22;69544;42.138;24.742;2023-05-08T03:13:28;22.70;33.70
80238;DHT22;69544;42.138;24.742;2023-05-08T03:15:59;22.70;33.70
80238;DHT22;69544;42.138;24.742;2023-05-08T03:18:35;22.70;33.80
80238;DHT22;69544;42.138;24.742;2023-05-08T03:21:01;22.70;33.70
80238;DHT22;69544;42.138;24.742;2023-05-08T03:23:30;22.70;33.70
80238;DHT22;69544;42.138;24.742;2023-05-08T03:25:58;22.70;33.60
80238;DHT22;69544;42.138;24.742;2023-05-08T03:28:26;22.70;33.60
80238;DHT22;69544;42.138;24.742;2023-05-08T03:30:53;22.70;33.50
80238;DHT22;69544;42.138;24.742;2023-05-08T03:33:21;22.70;33.70
80238;DHT22;69544;42.138;24.742;2023-05-08T03:35:48;22.70;33.50
80238;DHT22;69544;42.138;24.742;2023-05-08T03:38:14;22.70;33.50
80238;DHT22;69544;42.138;24.742;2023-05-08T03:40:41;22.70;33.50
80238;DHT22;69544;42.138;24.742;2023-05-08T03:43:07;22.70;33.60
80238;DHT22;69544;42.138;24.742;2023-05-08T03:45:35;22.70;33.50
80238;DHT22;69544;42.138;24.742;2023-05-08T03:48:06;22.70;33.50
80238;DHT22;69544;42.138;24.742;2023-05-08T03:50:34;22.70;33.50
80238;DHT22;69544;42.138;24.742;2023-05-08T03:53:00;22.70;33.50
80238;DHT22;69544;42.138;24.742;2023-05-08T03:55:26;22.70;33.50
80238;DHT22;69544;42.138;24.742;2023-05-08T03:57:56;22.70;33.50
80238;DHT22;69544;42.138;24.742;2023-05-08T04:03:12;22.70;33.50
80238;DHT22;69544;42.138;24.742;2023-05-08T04:05:50;22.70;33.40
80238;DHT22;69544;42.138;24.742;2023-05-08T04:08:21;22.70;33.50
80238;DHT22;69544;42.138;24.742;2023-05-08T04:11:04;22.70;33.50
80238;DHT22;69544;42.138;24.742;2023-05-08T04:13:31;22.70;33.50
80238;DHT22;69544;42.138;24.742;2023-05-08T04:16:08;22.70;33.50
80238;DHT22;69544;42.138;24.742;2023-05-08T04:18:37;22.70;33.50
80238;DHT22;69544;42.138;24.742;2023-05-08T04:21:09;22.70;33.40
80238;DHT22;69544;42.138;24.742;2023-05-08T04:23:37;22.70;33.40
80238;DHT22;69544;42.138;24.742;2023-05-08T04:26:05;22.70;33.40
80238;DHT22;69544;42.138;24.742;2023-05-08T04:28:32;22.70;33.40
80238;DHT22;69544;42.138;24.742;2023-05-08T04:30:58;22.70;33.30
80238;DHT22;69544;42.138;24.742;2023-05-08T04:33:25;22.70;33.30
80238;DHT22;69544;42.138;24.742;2023-05-08T04:35:53;22.70;33.40
80238;DHT22;69544;42.138;24.742;2023-05-08T04:38:18;22.70;33.30
80238;DHT22;69544;42.138;24.742;2023-05-08T04:40:44;22.70;33.30
80238;DHT22;69544;42.138;24.742;2023-05-08T04:43:10;22.70;33.20
80238;DHT22;69544;42.138;24.742;2023-05-08T04:45:36;22.70;33.20
80238;DHT22;69544;42.138;24.742;2023-05-08T04:48:01;22.70;33.20
80238;DHT22;69544;42.138;24.742;2023-05-08T04:50:27;22.70;33.20
80238;DHT22;69544;42.138;24.742;2023-05-08T04:52:53;22.70;33.20
80238;DHT22;69544;42.138;24.742;2023-05-08T04:55:19;22.70;33.10
80238;DHT22;69544;42.138;24.742;2023-05-08T04:57:44;22.70;33.10
80238;DHT22;69544;42.138;24.742;2023-05-08T05:00:11;22.70;33.10
80238;DHT22;69544;42.138;24.742;2023-05-08T05:02:36;22.70;33.20
80238;DHT22;69544;42.138;24.742;2023-05-08T05:05:02;22.80;33.10
80238;DHT22;69544;42.138;24.742;2023-05-08T05:07:28;22.70;33.20
80238;DHT22;69544;42.138;24.742;2023-05-08T05:09:54;22.80;33.10
80238;DHT22;69544;42.138;24.742;2023-05-08T05:12:19;22.70;33.00
80238;DHT22;69544;42.138;24.742;2023-05-08T05:14:45;22.70;33.00
80238;DHT22;69544;42.138;24.742;2023-05-08T05:17:11;22.70;32.90
80238;DHT22;69544;42.138;24.742;2023-05-08T05:19:37;22.70;33.00
80238;DHT22;69544;42.138;24.742;2023-05-08T05:22:03;22.80;32.90
80238;DHT22;69544;42.138;24.742;2023-05-08T05:24:30;22.80;33.00
80238;DHT22;69544;42.138;24.742;2023-05-08T05:26:56;22.80;32.90
80238;DHT22;69544;42.138;24.742;2023-05-08T05:29:21;22.80;33.00
80238;DHT22;69544;42.138;24.742;2023-05-08T05:31:47;22.80;32.80
80238;DHT22;69544;42.138;24.742;2023-05-08T05:34:14;22.80;33.00
80238;DHT22;69544;42.138;24.742;2023-05-08T05:36:39;22.80;32.90
80238;DHT22;69544;42.138;24.742;2023-05-08T05:39:05;22.80;32.90
80238;DHT22;69544;42.138;24.742;2023-05-08T05:41:31;22.80;32.90
80238;DHT22;69544;42.138;24.742;2023-05-08T05:43:57;22.80;33.00
80238;DHT22;69544;42.138;24.742;2023-05-08T05:46:23;22.80;32.90
80238;DHT22;69544;42.138;24.742;2023-05-08T05:48:57;22.80;32.80
80238;DHT22;69544;42.138;24.742;2023-05-08T05:51:23;22.80;33.00
80238;DHT22;69544;42.138;24.742;2023-05-08T05:53:48;22.80;32.90
80238;DHT22;69544;42.138;24.742;2023-05-08T05:56:14;22.80;32.90
80238;DHT22;69544;42.138;24.742;2023-05-08T05:58:40;22.80;32.80
80238;DHT22;69544;42.138;24.742;2023-05-08T06:01:09;22.80;32.70
80238;DHT22;69544;42.138;24.742;2023-05-08T06:03:35;22.90;32.80
80238;DHT22;69544;42.138;24.742;2023-05-08T06:06:02;22.80;32.90
80238;DHT22;69544;42.138;24.742;2023-05-08T06:08:28;22.80;32.70
80238;DHT22;69544;42.138;24.742;2023-05-08T06:10:54;22.80;32.70
80238;DHT22;69544;42.138;24.742;2023-05-08T06:13:19;22.90;32.80
80238;DHT22;69544;42.138;24.742;2023-05-08T06:15:45;22.90;32.90
80238;DHT22;69544;42.138;24.742;2023-05-08T06:18:12;22.80;32.80
80238;DHT22;69544;42.138;24.742;2023-05-08T06:20:38;22.90;32.80
80238;DHT22;69544;42.138;24.742;2023-05-08T06:23:04;22.90;32.90
80238;DHT22;69544;42.138;24.742;2023-05-08T06:25:30;22.90;32.90
80238;DHT22;69544;42.138;24.742;2023-05-08T06:27:56;22.90;32.90
80238;DHT22;69544;42.138;24.742;2023-05-08T06:30:22;22.90;33.00
80238;DHT22;69544;42.138;24.742;2023-05-08T06:32:48;22.90;32.80
80238;DHT22;69544;42.138;24.742;2023-05-08T06:35:14;22.90;32.80
80238;DHT22;69544;42.138;24.742;2023-05-08T06:37:47;22.90;32.80
80238;DHT22;69544;42.138;24.742;2023-05-08T06:40:13;22.80;32.60
80238;DHT22;69544;42.138;24.742;2023-05-08T06:42:39;22.90;32.80
80238;DHT22;69544;42.138;24.742;2023-05-08T06:45:07;22.90;33.00
80238;DHT22;69544;42.138;24.742;2023-05-08T06:47:33;22.90;33.00
80238;DHT22;69544;42.138;24.742;2023-05-08T06:49:59;22.90;33.00
80238;DHT22;69544;42.138;24.742;2023-05-08T06:52:25;22.90;33.00
80238;DHT22;69544;42.138;24.742;2023-05-08T06:54:51;22.90;33.00
80238;DHT22;69544;42.138;24.742;2023-05-08T06:57:16;22.90;33.00
80238;DHT22;69544;42.138;24.742;2023-05-08T06:59:42;22.90;32.90
80238;DHT22;69544;42.138;24.742;2023-05-08T07:02:08;22.90;32.90
80238;DHT22;69544;42.138;24.742;2023-05-08T07:04:35;22.90;32.90
80238;DHT22;69544;42.138;24.742;2023-05-08T07:07:01;22.90;32.80
80238;DHT22;69544;42.138;24.742;2023-05-08T07:09:27;22.90;32.70
80238;DHT22;69544;42.138;24.742;2023-05-08T07:11:53;22.90;32.70
80238;DHT22;69544;42.138;24.742;2023-05-08T07:14:18;22.90;32.60
80238;DHT22;69544;42.138;24.742;2023-05-08T07:16:44;22.90;32.70
80238;DHT22;69544;42.138;24.742;2023-05-08T07:19:10;23.00;32.70
80238;DHT22;69544;42.138;24.742;2023-05-08T07:21:36;23.00;32.60
80238;DHT22;69544;42.138;24.742;2023-05-08T07:24:04;23.00;32.60
80238;DHT22;69544;42.138;24.742;2023-05-08T07:26:30;23.00;32.60
80238;DHT22;69544;42.138;24.742;2023-05-08T07:28:56;22.90;32.60
80238;DHT22;69544;42.138;24.742;2023-05-08T07:31:22;22.90;32.60
80238;DHT22;69544;42.138;24.742;2023-05-08T07:33:47;22.90;32.50
80238;DHT22;69544;42.138;24.742;2023-05-08T07:36:13;23.00;32.60
80238;DHT22;69544;42.138;24.742;2023-05-08T07:38:39;23.00;32.50
80238;DHT22;69544;42.138;24.742;2023-05-08T07:41:05;23.00;32.50
80238;DHT22;69544;42.138;24.742;2023-05-08T07:43:31;22.90;32.50
80238;DHT22;69544;42.138;24.742;2023-05-08T07:45:57;23.00;32.50
80238;DHT22;69544;42.138;24.742;2023-05-08T07:48:23;23.00;32.50
80238;DHT22;69544;42.138;24.742;2023-05-08T07:50:49;22.90;32.40
80238;DHT22;69544;42.138;24.742;2023-05-08T07:53:15;23.00;32.40
80238;DHT22;69544;42.138;24.742;2023-05-08T07:55:41;23.00;32.40
80238;DHT22;69544;42.138;24.742;2023-05-08T07:58:07;23.00;32.40
80238;DHT22;69544;42.138;24.742;2023-05-08T08:00:33;23.00;32.40
80238;DHT22;69544;42.138;24.742;2023-05-08T08:02:58;23.00;32.40
80238;DHT22;69544;42.138;24.742;2023-05-08T08:05:24;23.00;32.40
80238;DHT22;69544;42.138;24.742;2023-05-08T08:07:50;23.00;32.40
80238;DHT22;69544;42.138;24.742;2023-05-08T08:10:15;23.00;32.30
80238;DHT22;69544;42.138;24.742;2023-05-08T08:12:41;23.00;32.40
80238;DHT22;69544;42.138;24.742;2023-05-08T08:15:07;23.00;32.40
80238;DHT22;69544;42.138;24.742;2023-05-08T08:17:33;23.00;32.40
80238;DHT22;69544;42.138;24.742;2023-05-08T08:19:59;23.00;32.30
80238;DHT22;69544;42.138;24.742;2023-05-08T08:22:25;23.00;32.40
80238;DHT22;69544;42.138;24.742;2023-05-08T08:24:53;23.00;32.30
80238;DHT22;69544;42.138;24.742;2023-05-08T08:27:19;23.00;32.30
80238;DHT22;69544;42.138;24.742;2023-05-08T08:29:45;23.10;32.40
80238;DHT22;69544;42.138;24.742;2023-05-08T08:32:11;23.00;32.40
80238;DHT22;69544;42.138;24.742;2023-05-08T08:34:36;23.00;32.40
80238;DHT22;69544;42.138;24.742;2023-05-08T08:37:04;23.00;32.40
80238;DHT22;69544;42.138;24.742;2023-05-08T08:39:34;23.00;32.40
80238;DHT22;69544;42.138;24.742;2023-05-08T08:42:00;23.00;32.40
80238;DHT22;69544;42.138;24.742;2023-05-08T08:44:26;23.00;32.40
80238;DHT22;69544;42.138;24.742;2023-05-08T08:46:52;23.00;32.50
80238;DHT22;69544;42.138;24.742;2023-05-08T08:49:42;23.00;32.40
80238;DHT22;69544;42.138;24.742;2023-05-08T08:54:43;23.00;32.50
80238;DHT22;69544;42.138;24.742;2023-05-08T08:57:13;23.10;32.60
80238;DHT22;69544;42.138;24.742;2023-05-08T08:59:39;23.00;32.50
80238;DHT22;69544;42.138;24.742;2023-05-08T09:02:10;23.10;32.50
80238;DHT22;69544;42.138;24.742;2023-05-08T09:04:37;23.10;32.50
80238;DHT22;69544;42.138;24.742;2023-05-08T09:07:03;23.00;32.50
80238;DHT22;69544;42.138;24.742;2023-05-08T09:09:38;23.10;32.50
80238;DHT22;69544;42.138;24.742;2023-05-08T09:12:05;23.00;32.50
80238;DHT22;69544;42.138;24.742;2023-05-08T09:14:31;23.10;32.50
80238;DHT22;69544;42.138;24.742;2023-05-08T09:16:57;23.10;32.60
80238;DHT22;69544;42.138;24.742;2023-05-08T09:19:25;23.10;32.60
80238;DHT22;69544;42.138;24.742;2023-05-08T09:21:51;23.10;32.50
80238;DHT22;69544;42.138;24.742;2023-05-08T09:24:17;23.10;32.50
80238;DHT22;69544;42.138;24.742;2023-05-08T09:26:42;23.10;32.50
80238;DHT22;69544;42.138;24.742;2023-05-08T09:31:40;23.20;32.50
80238;DHT22;69544;42.138;24.742;2023-05-08T09:34:08;23.20;32.50
80238;DHT22;69544;42.138;24.742;2023-05-08T09:36:34;23.20;32.60
80238;DHT22;69544;42.138;24.742;2023-05-08T09:39:01;23.20;32.50
80238;DHT22;69544;42.138;24.742;2023-05-08T09:41:27;23.20;32.50
80238;DHT22;69544;42.138;24.742;2023-05-08T09:44:03;23.10;32.50
80238;DHT22;69544;42.138;24.742;2023-05-08T09:46:30;23.20;32.50
80238;DHT22;69544;42.138;24.742;2023-05-08T09:48:59;23.20;32.50
80238;DHT22;69544;42.138;24.742;2023-05-08T09:51:27;23.20;32.50
80238;DHT22;69544;42.138;24.742;2023-05-08T09:53:54;23.20;32.50
80238;DHT22;69544;42.138;24.742;2023-05-08T09:56:36;23.20;32.50
80238;DHT22;69544;42.138;24.742;2023-05-08T09:59:26;23.20;32.50
80238;DHT22;69544;42.138;24.742;2023-05-08T10:01:54;23.20;32.40
80238;DHT22;69544;42.138;24.742;2023-05-08T10:04:36;23.20;32.50
80238;DHT22;69544;42.138;24.742;2023-05-08T10:07:03;23.20;32.40
80238;DHT22;69544;42.138;24.742;2023-05-08T10:09:29;23.20;33.50
80238;DHT22;69544;42.138;24.742;2023-05-08T10:11:55;23.20;32.50
80238;DHT22;69544;42.138;24.742;2023-05-08T10:14:24;23.30;32.50
80238;DHT22;69544;42.138;24.742;2023-05-08T10:16:51;23.30;32.50
80238;DHT22;69544;42.138;24.742;2023-05-08T10:19:22;23.30;32.50
80238;DHT22;69544;42.138;24.742;2023-05-08T10:21:50;23.30;32.60
80238;DHT22;69544;42.138;24.742;2023-05-08T10:24:25;23.30;32.50
80238;DHT22;69544;42.138;24.742;2023-05-08T10:29:53;23.30;32.60
80238;DHT22;69544;42.138;24.742;2023-05-08T10:32:20;23.20;32.50
80238;DHT22;69544;42.138;24.742;2023-05-08T10:34:57;23.20;32.50
80238;DHT22;69544;42.138;24.742;2023-05-08T10:37:23;23.20;32.60
80238;DHT22;69544;42.138;24.742;2023-05-08T10:39:51;23.20;32.60
80238;DHT22;69544;42.138;24.742;2023-05-08T10:42:18;23.20;32.60
80238;DHT22;69544;42.138;24.742;2023-05-08T10:44:45;23.20;32.60
80238;DHT22;69544;42.138;24.742;2023-05-08T10:53:10;23.20;32.60
80238;DHT22;69544;42.138;24.742;2023-05-08T10:55:37;23.20;32.70
80238;DHT22;69544;42.138;24.742;2023-05-08T10:58:12;23.30;32.70
80238;DHT22;69544;42.138;24.742;2023-05-08T11:03:16;23.30;32.70
80238;DHT22;69544;42.138;24.742;2023-05-08T11:05:45;23.30;32.60
80238;DHT22;69544;42.138;24.742;2023-05-08T11:08:22;23.40;32.60
80238;DHT22;69544;42.138;24.742;2023-05-08T11:13:47;23.40;32.50
80238;DHT22;69544;42.138;24.742;2023-05-08T11:16:14;23.40;32.50
80238;DHT22;69544;42.138;24.742;2023-05-08T11:19:15;23.40;32.50
80238;DHT22;69544;42.138;24.742;2023-05-08T11:22:10;23.50;32.50
80238;DHT22;69544;42.138;24.742;2023-05-08T11:24:37;23.50;32.50
80238;DHT22;69544;42.138;24.742;2023-05-08T11:27:03;23.50;32.50
80238;DHT22;69544;42.138;24.742;2023-05-08T11:29:29;23.60;32.50
80238;DHT22;69544;42.138;24.742;2023-05-08T11:31:55;23.60;32.40
80238;DHT22;69544;42.138;24.742;2023-05-08T11:37:20;23.60;32.20
80238;DHT22;69544;42.138;24.742;2023-05-08T11:39:46;23.70;32.20
80238;DHT22;69544;42.138;24.742;2023-05-08T11:45:11;23.70;32.10
80238;DHT22;69544;42.138;24.742;2023-05-08T11:47:41;23.80;32.10
80238;DHT22;69544;42.138;24.742;2023-05-08T11:50:08;23.80;32.00
80238;DHT22;69544;42.138;24.742;2023-05-08T11:52:35;23.80;32.00
80238;DHT22;69544;42.138;24.742;2023-05-08T11:55:08;23.90;31.90
80238;DHT22;69544;42.138;24.742;2023-05-08T11:57:34;23.90;31.80
80238;DHT22;69544;42.138;24.742;2023-05-08T12:00:07;24.00;31.80
80238;DHT22;69544;42.138;24.742;2023-05-08T12:02:41;24.00;31.70
80238;DHT22;69544;42.138;24.742;2023-05-08T12:05:08;24.00;31.60
80238;DHT22;69544;42.138;24.742;2023-05-08T12:07:44;24.10;31.60
80238;DHT22;69544;42.138;24.742;2023-05-08T12:10:11;24.10;31.50
80238;DHT22;69544;42.138;24.742;2023-05-08T12:12:41;24.20;31.50
80238;DHT22;69544;42.138;24.742;2023-05-08T12:15:12;24.20;31.40
80238;DHT22;69544;42.138;24.742;2023-05-08T12:17:38;24.20;31.40
80238;DHT22;69544;42.138;24.742;2023-05-08T12:20:15;24.30;31.40
80238;DHT22;69544;42.138;24.742;2023-05-08T12:22:48;24.30;31.20
80238;DHT22;69544;42.138;24.742;2023-05-08T12:25:16;24.30;31.20
80238;DHT22;69544;42.138;24.742;2023-05-08T12:27:43;24.30;31.20
80238;DHT22;69544;42.138;24.742;2023-05-08T12:30:11;24.30;31.10
80238;DHT22;69544;42.138;24.742;2023-05-08T12:32:39;24.30;31.10
80238;DHT22;69544;42.138;24.742;2023-05-08T12:35:12;24.20;31.20
80238;DHT22;69544;42.138;24.742;2023-05-08T12:37:39;24.20;31.20
80238;DHT22;69544;42.138;24.742;2023-05-08T12:40:05;24.20;31.40
80238;DHT22;69544;42.138;24.742;2023-05-08T12:42:47;24.10;31.40
80238;DHT22;69544;42.138;24.742;2023-05-08T12:45:19;24.10;31.40
80238;DHT22;69544;42.138;24.742;2023-05-08T12:47:51;24.20;31.60
80238;DHT22;69544;42.138;24.742;2023-05-08T12:50:18;24.20;31.60
80238;DHT22;69544;42.138;24.742;2023-05-08T12:52:48;24.20;31.60
80238;DHT22;69544;42.138;24.742;2023-05-08T12:57:56;24.30;31.50
80238;DHT22;69544;42.138;24.742;2023-05-08T13:00:23;24.30;31.40
80238;DHT22;69544;42.138;24.742;2023-05-08T13:02:55;24.30;31.40
80238;DHT22;69544;42.138;24.742;2023-05-08T13:05:22;24.30;31.50
80238;DHT22;69544;42.138;24.742;2023-05-08T13:07:49;24.30;31.40
80238;DHT22;69544;42.138;24.742;2023-05-08T13:10:16;24.40;31.50
80238;DHT22;69544;42.138;24.742;2023-05-08T13:12:45;24.40;31.40
80238;DHT22;69544;42.138;24.742;2023-05-08T13:15:12;24.40;31.20
80238;DHT22;69544;42.138;24.742;2023-05-08T13:17:38;24.50;31.20
80238;DHT22;69544;42.138;24.742;2023-05-08T13:20:04;24.50;31.20
80238;DHT22;69544;42.138;24.742;2023-05-08T13:22:30;24.50;31.20
80238;DHT22;69544;42.138;24.742;2023-05-08T13:24:55;24.50;31.10
80238;DHT22;69544;42.138;24.742;2023-05-08T13:27:21;24.50;31.10
80238;DHT22;69544;42.138;24.742;2023-05-08T13:29:47;24.60;31.10
80238;DHT22;69544;42.138;24.742;2023-05-08T13:32:13;24.60;31.00
80238;DHT22;69544;42.138;24.742;2023-05-08T13:34:39;24.50;31.00
80238;DHT22;69544;42.138;24.742;2023-05-08T13:37:05;24.50;31.00
80238;DHT22;69544;42.138;24.742;2023-05-08T13:39:31;24.50;31.10
80238;DHT22;69544;42.138;24.742;2023-05-08T13:42:04;24.50;31.10
80238;DHT22;69544;42.138;24.742;2023-05-08T13:44:30;24.50;31.20
80238;DHT22;69544;42.138;24.742;2023-05-08T13:46:56;24.50;31.10
80238;DHT22;69544;42.138;24.742;2023-05-08T13:49:21;24.50;31.20
80238;DHT22;69544;42.138;24.742;2023-05-08T13:51:49;24.60;31.20
80238;DHT22;69544;42.138;24.742;2023-05-08T13:54:15;24.50;31.10
80238;DHT22;69544;42.138;24.742;2023-05-08T13:56:41;24.50;31.10
80238;DHT22;69544;42.138;24.742;2023-05-08T13:59:07;24.50;31.10
80238;DHT22;69544;42.138;24.742;2023-05-08T14:01:33;24.50;31.20
80238;DHT22;69544;42.138;24.742;2023-05-08T14:03:58;24.50;31.20
80238;DHT22;69544;42.138;24.742;2023-05-08T14:06:24;24.60;31.30
80238;DHT22;69544;42.138;24.742;2023-05-08T14:08:50;24.60;31.40
80238;DHT22;69544;42.138;24.742;2023-05-08T14:11:16;24.60;31.30
80238;DHT22;69544;42.138;24.742;2023-05-08T14:13:41;24.60;31.30
80238;DHT22;69544;42.138;24.742;2023-05-08T14:16:07;24.60;31.40
80238;DHT22;69544;42.138;24.742;2023-05-08T14:18:35;24.60;31.30
80238;DHT22;69544;42.138;24.742;2023-05-08T14:21:00;24.70;31.30
80238;DHT22;69544;42.138;24.742;2023-05-08T14:23:26;24.70;31.30
80238;DHT22;69544;42.138;24.742;2023-05-08T14:25:52;24.70;31.30
80238;DHT22;69544;42.138;24.742;2023-05-08T14:28:18;24.70;31.30
80238;DHT22;69544;42.138;24.742;2023-05-08T14:30:43;24.70;31.30
80238;DHT22;69544;42.138;24.742;2023-05-08T14:33:09;24.70;31.30
80238;DHT22;69544;42.138;24.742;2023-05-08T14:35:35;24.80;31.30
80238;DHT22;69544;42.138;24.742;2023-05-08T14:38:01;24.80;31.30
80238;DHT22;69544;42.138;24.742;2023-05-08T14:40:26;24.80;31.30
80238;DHT22;69544;42.138;24.742;2023-05-08T14:42:52;24.80;31.20
80238;DHT22;69544;42.138;24.742;2023-05-08T14:45:18;24.80;31.20
80238;DHT22;69544;42.138;24.742;2023-05-08T14:47:44;24.80;31.20
80238;DHT22;69544;42.138;24.742;2023-05-08T14:50:10;24.80;31.20
80238;DHT22;69544;42.138;24.742;2023-05-08T14:52:35;24.80;31.10
80238;DHT22;69544;42.138;24.742;2023-05-08T14:55:01;24.80;31.10
80238;DHT22;69544;42.138;24.742;2023-05-08T14:57:27;24.80;31.20
80238;DHT22;69544;42.138;24.742;2023-05-08T14:59:53;24.70;31.20
80238;DHT22;69544;42.138;24.742;2023-05-08T15:02:21;24.70;31.30
80238;DHT22;69544;42.138;24.742;2023-05-08T15:04:47;24.60;31.30
80238;DHT22;69544;42.138;24.742;2023-05-08T15:07:13;24.60;31.40
80238;DHT22;69544;42.138;24.742;2023-05-08T15:09:38;24.60;31.40
80238;DHT22;69544;42.138;24.742;2023-05-08T15:12:04;24.50;31.50
80238;DHT22;69544;42.138;24.742;2023-05-08T15:14:30;24.50;31.60
80238;DHT22;69544;42.138;24.742;2023-05-08T15:16:56;24.40;31.50
80238;DHT22;69544;42.138;24.742;2023-05-08T15:19:22;24.40;31.60
80238;DHT22;69544;42.138;24.742;2023-05-08T15:21:48;24.40;31.70
80238;DHT22;69544;42.138;24.742;2023-05-08T15:24:13;24.30;31.80
80238;DHT22;69544;42.138;24.742;2023-05-08T15:26:39;24.30;31.90
80238;DHT22;69544;42.138;24.742;2023-05-08T15:29:05;24.30;32.00
80238;DHT22;69544;42.138;24.742;2023-05-08T15:31:30;24.20;32.00
80238;DHT22;69544;42.138;24.742;2023-05-08T15:33:56;24.20;32.00
80238;DHT22;69544;42.138;24.742;2023-05-08T15:36:22;24.20;32.20
80238;DHT22;69544;42.138;24.742;2023-05-08T15:38:48;24.10;32.10
80238;DHT22;69544;42.138;24.742;2023-05-08T15:41:13;24.10;32.20
80238;DHT22;69544;42.138;24.742;2023-05-08T15:43:39;24.10;32.30
80238;DHT22;69544;42.138;24.742;2023-05-08T15:46:05;24.00;32.30
80238;DHT22;69544;42.138;24.742;2023-05-08T15:48:31;24.00;32.30
80238;DHT22;69544;42.138;24.742;2023-05-08T15:50:57;24.00;32.40
80238;DHT22;69544;42.138;24.742;2023-05-08T15:53:23;24.00;32.40
80238;DHT22;69544;42.138;24.742;2023-05-08T15:55:49;24.00;32.50
80238;DHT22;69544;42.138;24.742;2023-05-08T15:58:15;23.90;32.50
80238;DHT22;69544;42.138;24.742;2023-05-08T16:00:40;23.90;32.60
80238;DHT22;69544;42.138;24.742;2023-05-08T16:03:06;23.90;32.60
80238;DHT22;69544;42.138;24.742;2023-05-08T16:05:33;23.90;32.70
80238;DHT22;69544;42.138;24.742;2023-05-08T16:07:58;23.90;32.80
80238;DHT22;69544;42.138;24.742;2023-05-08T16:10:24;23.80;32.70
80238;DHT22;69544;42.138;24.742;2023-05-08T16:12:50;23.80;32.70
80238;DHT22;69544;42.138;24.742;2023-05-08T16:15:15;23.80;33.00
80238;DHT22;69544;42.138;24.742;2023-05-08T16:17:41;23.80;32.80